createdAt,value
2018-02-06T00:00:00.412Z,26.70
2018-02-06T00:02:27.931Z,25.98
2018-02-06T00:04:55.459Z,28.73
2018-02-06T00:07:23.773Z,27.33
2018-02-06T00:09:51.297Z,31.75
2018-02-06T00:12:18.800Z,32.10
2018-02-06T00:14:46.330Z,27.75
2018-02-06T00:17:14.616Z,29.70
2018-02-06T00:19:42.117Z,27.37
2018-02-06T00:22:09.647Z,31.27
2018-02-06T00:24:37.164Z,30.30
2018-02-06T00:27:04.677Z,27.30
2018-02-06T00:29:32.210Z,28.98
2018-02-06T00:31:59.726Z,21.25
2018-02-06T00:34:27.252Z,24.08
2018-02-06T00:36:54.796Z,25.73
2018-02-06T00:39:22.316Z,29.60
2018-02-06T00:41:49.835Z,27.80
2018-02-06T00:44:17.366Z,28.38
2018-02-06T00:46:44.877Z,25.75
2018-02-06T00:49:12.400Z,27.17
2018-02-06T00:51:39.909Z,26.37
2018-02-06T00:54:07.426Z,23.70
2018-02-06T00:56:34.964Z,25.37
2018-02-06T00:59:02.478Z,29.80
2018-02-06T01:01:29.990Z,25.55
2018-02-06T01:03:57.531Z,34.92
2018-02-06T01:06:25.040Z,29.70
2018-02-06T01:08:52.546Z,29.58
2018-02-06T01:11:20.069Z,24.12
2018-02-06T01:13:47.582Z,28.77
2018-02-06T01:16:15.100Z,28.38
2018-02-06T01:18:43.397Z,26.75
2018-02-06T01:21:10.920Z,32.20
2018-02-06T01:23:38.438Z,27.70
2018-02-06T01:26:05.984Z,28.33
2018-02-06T01:28:33.494Z,27.20
2018-02-06T01:31:01.001Z,29.33
2018-02-06T01:33:28.534Z,30.20
2018-02-06T01:35:56.818Z,34.13
2018-02-06T01:38:25.097Z,22.05
2018-02-06T01:40:53.405Z,24.25
2018-02-06T01:43:20.922Z,24.63
2018-02-06T01:45:49.204Z,24.60
2018-02-06T01:48:17.498Z,23.83
2018-02-06T01:50:45.025Z,24.50
2018-02-06T01:53:13.308Z,26.00
2018-02-06T01:55:41.614Z,24.52
2018-02-06T01:58:09.123Z,24.92
2018-02-06T02:00:36.640Z,24.23
2018-02-06T02:03:04.174Z,23.92
2018-02-06T02:05:32.460Z,27.40
2018-02-06T02:07:59.974Z,29.80
2018-02-06T02:10:27.505Z,22.67
2018-02-06T02:12:55.013Z,25.42
2018-02-06T02:15:23.276Z,27.48
2018-02-06T02:17:50.806Z,31.92
2018-02-06T02:20:18.327Z,27.55
2018-02-06T02:22:45.832Z,25.55
2018-02-06T02:25:13.375Z,27.98
2018-02-06T02:27:40.911Z,28.80
2018-02-06T02:30:08.438Z,23.08
2018-02-06T02:32:36.742Z,23.30
2018-02-06T02:35:04.264Z,28.55
2018-02-06T02:37:31.783Z,24.63
2018-02-06T02:39:59.318Z,27.67
2018-02-06T04:40:37.820Z,29.48
2018-02-06T04:43:05.330Z,30.40
2018-02-06T04:45:32.862Z,26.83
2018-02-06T04:48:00.374Z,32.45
2018-02-06T04:50:28.637Z,30.62
2018-02-06T04:52:56.170Z,25.23
2018-02-06T04:55:23.680Z,32.67
2018-02-06T04:57:51.964Z,36.85
2018-02-06T05:00:19.495Z,33.25
2018-02-06T05:02:47.788Z,31.52
2018-02-06T05:05:16.080Z,31.17
2018-02-06T05:07:43.627Z,35.45
2018-02-06T05:10:11.912Z,27.30
2018-02-06T05:12:39.420Z,35.35
2018-02-06T05:15:06.950Z,32.20
2018-02-06T05:17:34.458Z,32.63
2018-02-06T05:20:01.956Z,34.40
2018-02-06T05:22:29.494Z,30.67
2018-02-06T05:24:57.769Z,30.02
2018-02-06T05:27:26.047Z,30.30
2018-02-06T05:29:54.359Z,28.10
2018-02-06T05:32:21.866Z,31.42
2018-02-06T05:34:50.142Z,28.20
2018-02-06T05:37:17.678Z,30.23
2018-02-06T05:39:45.203Z,32.47
2018-02-06T05:42:12.710Z,29.15
2018-02-06T05:44:40.256Z,30.42
2018-02-06T05:47:07.770Z,30.92
2018-02-06T05:49:35.282Z,35.30
2018-02-06T05:52:03.582Z,38.15
2018-02-06T05:54:31.844Z,34.33
2018-02-06T05:56:59.337Z,30.30
2018-02-06T05:59:26.856Z,27.52
2018-02-06T06:01:54.366Z,26.90
2018-02-06T06:04:21.883Z,29.12
2018-02-06T06:06:50.196Z,23.45
2018-02-06T06:09:18.170Z,23.50
2018-02-06T06:11:45.691Z,28.87
2018-02-06T06:14:13.977Z,26.30
2018-02-06T06:16:42.264Z,25.48
2018-02-06T06:19:09.765Z,21.12
2018-02-06T06:21:37.309Z,22.90
2018-02-06T06:24:04.815Z,20.12
2018-02-06T06:26:33.090Z,25.30
2018-02-06T06:29:01.411Z,23.30
2018-02-06T06:31:28.914Z,27.45
2018-02-06T06:33:57.200Z,27.23
2018-02-06T06:36:24.735Z,23.77
2018-02-06T06:38:52.250Z,28.83
2018-02-06T06:41:19.766Z,27.00
2018-02-06T06:43:47.289Z,27.20
2018-02-06T06:46:14.817Z,27.10
2018-02-06T06:48:42.335Z,31.08
2018-02-06T06:51:10.873Z,29.90
2018-02-06T06:53:38.386Z,30.98
2018-02-06T06:56:05.905Z,29.25
2018-02-06T06:58:33.437Z,23.65
2018-02-06T07:01:00.953Z,29.15
2018-02-06T07:03:29.230Z,25.67
2018-02-06T07:05:56.761Z,35.28
2018-02-06T07:08:24.271Z,28.25
2018-02-06T07:10:52.537Z,26.33
2018-02-06T07:13:20.098Z,31.65
2018-02-06T07:15:48.388Z,29.87
2018-02-06T07:18:16.657Z,30.15
2018-02-06T07:20:44.963Z,27.20
2018-02-06T07:23:12.481Z,28.62
2018-02-06T07:25:39.972Z,25.70
2018-02-06T07:28:07.514Z,26.95
2018-02-06T07:30:35.790Z,19.48
2018-02-06T07:33:04.080Z,22.40
2018-02-06T07:35:31.604Z,20.05
2018-02-06T07:37:59.123Z,23.15
2018-02-06T07:40:26.625Z,23.95
2018-02-06T07:42:54.950Z,24.92
2018-02-06T07:45:22.454Z,29.70
2018-02-06T07:47:49.967Z,29.42
2018-02-06T07:50:17.502Z,25.58
2018-02-06T07:52:45.787Z,24.87
2018-02-06T07:55:13.294Z,25.65
2018-02-06T07:57:40.821Z,24.05
2018-02-06T08:00:08.330Z,23.00
2018-02-06T08:02:36.602Z,24.52
2018-02-06T08:05:04.136Z,22.20
2018-02-06T08:07:31.651Z,27.70
2018-02-06T08:09:59.918Z,22.50
2018-02-06T08:12:28.219Z,23.38
2018-02-06T08:14:55.737Z,21.70
2018-02-06T08:17:23.243Z,22.40
2018-02-06T08:19:50.767Z,23.58
2018-02-06T08:22:19.046Z,25.90
2018-02-06T08:24:47.318Z,27.35
2018-02-06T08:27:15.607Z,19.48
2018-02-06T08:29:43.887Z,22.70
2018-02-06T08:32:11.403Z,21.52
2018-02-06T08:34:38.930Z,19.65
2018-02-06T08:37:06.439Z,20.45
2018-02-06T08:39:34.724Z,21.52
2018-02-06T08:42:03.023Z,23.33
2018-02-06T08:44:30.534Z,20.70
2018-02-06T08:46:58.045Z,21.20
2018-02-06T08:49:25.587Z,19.40
2018-02-06T08:51:53.858Z,19.67
2018-02-06T08:54:22.116Z,19.02
2018-02-06T08:56:49.638Z,17.67
2018-02-06T08:59:17.508Z,20.65
2018-02-06T09:01:45.030Z,17.92
2018-02-06T09:04:12.548Z,21.58
2018-02-06T09:06:40.054Z,16.35
2018-02-06T09:09:07.567Z,21.20
2018-02-06T09:11:35.104Z,19.55
2018-02-06T09:14:02.606Z,19.15
2018-02-06T09:16:30.889Z,18.15
2018-02-06T09:18:58.447Z,25.70
2018-02-06T09:21:26.726Z,25.50
2018-02-06T09:23:54.998Z,16.55
2018-02-06T09:26:23.307Z,22.52
2018-02-06T09:28:50.809Z,20.70
2018-02-06T09:31:18.324Z,20.33
2018-02-06T09:33:45.844Z,20.10
2018-02-06T09:36:14.123Z,18.50
2018-02-06T09:38:42.412Z,22.30
2018-02-06T09:41:09.948Z,21.58
2018-02-06T09:43:37.446Z,15.30
2018-02-06T09:46:04.939Z,19.85
2018-02-06T09:48:32.456Z,21.75
2018-02-06T09:50:59.967Z,17.70
2018-02-06T09:53:27.488Z,18.98
2018-02-06T09:55:55.010Z,17.52
2018-02-06T09:58:23.278Z,21.37
2018-02-06T10:00:51.550Z,18.25
2018-02-06T10:03:19.087Z,19.70
2018-02-06T10:05:46.586Z,18.65
2018-02-06T10:08:14.853Z,17.62
2018-02-06T10:10:43.161Z,17.60
2018-02-06T10:13:10.679Z,19.20
2018-02-06T10:15:38.967Z,16.98
2018-02-06T10:18:07.253Z,19.90
2018-02-06T10:20:35.511Z,16.48
2018-02-06T10:23:03.792Z,16.42
2018-02-06T10:25:31.337Z,20.58
2018-02-06T10:27:58.834Z,18.05
2018-02-06T10:30:26.328Z,16.12
2018-02-06T10:32:53.853Z,26.65
2018-02-06T10:35:21.367Z,17.70
2018-02-06T10:37:48.908Z,15.43
2018-02-06T10:40:16.400Z,16.40
2018-02-06T10:42:44.661Z,15.10
2018-02-06T10:45:12.161Z,15.38
2018-02-06T10:47:39.732Z,18.25
2018-02-06T10:50:07.230Z,15.23
2018-02-06T10:52:34.723Z,14.65
2018-02-06T10:55:03.009Z,14.45
2018-02-06T10:57:30.509Z,14.82
2018-02-06T10:59:58.006Z,15.82
2018-02-06T11:02:25.535Z,12.90
2018-02-06T11:04:53.019Z,13.93
2018-02-06T11:07:21.290Z,13.15
2018-02-06T11:09:49.591Z,10.73
2018-02-06T11:12:17.089Z,14.68
2018-02-06T11:14:44.589Z,13.57
2018-02-06T11:17:12.922Z,14.20
2018-02-06T11:19:40.434Z,15.93
2018-02-06T11:22:08.711Z,13.93
2018-02-06T11:24:37.011Z,12.05
2018-02-06T11:27:04.514Z,13.38
2018-02-06T11:29:32.009Z,17.70
2018-02-06T11:31:59.529Z,12.32
2018-02-06T11:34:27.025Z,14.15
2018-02-06T11:36:55.359Z,14.77
2018-02-06T11:39:22.883Z,9.80
2018-02-06T11:41:50.381Z,13.85
2018-02-06T11:44:17.885Z,11.10
2018-02-06T11:46:45.421Z,14.05
2018-02-06T11:49:13.685Z,16.48
2018-02-06T11:51:41.181Z,14.02
2018-02-06T11:54:08.701Z,12.80
2018-02-06T11:56:36.215Z,10.75
2018-02-06T11:59:03.713Z,15.20
2018-02-06T12:01:31.238Z,14.85
2018-02-06T12:03:58.753Z,8.35
2018-02-06T12:06:27.008Z,10.82
2018-02-06T12:08:54.520Z,13.65
2018-02-06T12:11:22.032Z,12.70
2018-02-06T12:13:49.548Z,12.65
2018-02-06T12:16:17.129Z,11.15
2018-02-06T12:18:44.591Z,13.27
2018-02-06T12:21:12.089Z,12.35
2018-02-06T12:23:39.599Z,13.62
2018-02-06T12:26:07.103Z,15.55
2018-02-06T12:28:35.375Z,13.13
2018-02-06T12:31:03.680Z,14.10
2018-02-06T12:33:31.177Z,13.23
2018-02-06T12:35:58.687Z,14.70
2018-02-06T12:38:26.209Z,17.87
2018-02-06T12:40:53.714Z,16.08
2018-02-06T12:43:21.219Z,16.15
2018-02-06T12:45:48.737Z,13.52
2018-02-06T12:48:16.240Z,15.70
2018-02-06T12:50:43.742Z,13.55
2018-02-06T12:53:11.273Z,21.73
2018-02-06T12:55:39.527Z,14.27
2018-02-06T12:58:07.027Z,18.98
2018-02-06T13:00:34.560Z,15.88
2018-02-06T13:03:02.821Z,13.55
2018-02-06T13:05:31.178Z,16.50
2018-02-06T13:07:58.719Z,16.58
2018-02-06T13:10:26.211Z,14.70
2018-02-06T13:12:53.707Z,17.23
2018-02-06T13:15:21.223Z,14.13
2018-02-06T13:17:48.734Z,13.80
2018-02-06T13:20:16.232Z,15.95
2018-02-06T13:22:43.747Z,14.68
2018-02-06T13:25:11.235Z,16.17
2018-02-06T13:27:38.748Z,15.32
2018-02-06T13:30:07.044Z,16.48
2018-02-06T13:32:34.560Z,14.18
2018-02-06T13:35:02.084Z,14.48
2018-02-06T13:37:29.616Z,15.07
2018-02-06T13:39:57.132Z,16.52
2018-02-06T13:42:24.638Z,17.27
2018-02-06T13:44:52.165Z,20.27
2018-02-06T13:47:20.528Z,18.00
2018-02-06T13:49:48.021Z,14.35
2018-02-06T13:52:15.542Z,17.90
2018-02-06T13:54:43.045Z,17.25
2018-02-06T13:57:10.550Z,15.55
2018-02-06T13:59:38.068Z,15.52
2018-02-06T14:02:05.572Z,18.83
2018-02-06T14:04:33.064Z,16.55
2018-02-06T14:07:01.365Z,17.75
2018-02-06T14:09:28.920Z,17.58
2018-02-06T14:11:56.411Z,24.08
2018-02-06T14:14:23.948Z,17.98
2018-02-06T14:16:51.458Z,20.98
2018-02-06T14:19:19.734Z,17.00
2018-02-06T14:21:48.044Z,19.00
2018-02-06T14:24:15.559Z,16.80
2018-02-06T14:26:43.052Z,18.33
2018-02-06T14:29:10.586Z,14.40
2018-02-06T14:31:38.863Z,25.08
2018-02-06T14:34:07.124Z,17.12
2018-02-06T14:36:34.722Z,15.00
2018-02-06T14:39:02.202Z,18.37
2018-02-06T14:41:29.724Z,15.55
2018-02-06T14:43:58.022Z,17.10
2018-02-06T14:46:25.533Z,20.65
2018-02-06T14:48:53.020Z,17.65
2018-02-06T14:51:21.305Z,15.52
2018-02-06T14:53:48.796Z,15.77
2018-02-06T14:56:16.315Z,15.48
2018-02-06T14:58:44.599Z,18.30
2018-02-06T15:01:12.860Z,14.13
2018-02-06T15:03:41.126Z,14.20
2018-02-06T15:06:08.641Z,15.85
2018-02-06T15:08:36.154Z,15.60
2018-02-06T15:11:04.435Z,13.75
2018-02-06T15:13:32.735Z,16.77
2018-02-06T15:16:00.241Z,14.45
2018-02-06T15:18:27.741Z,16.23
2018-02-06T15:20:55.287Z,21.60
2018-02-06T15:23:23.565Z,16.10
2018-02-06T15:25:51.855Z,17.20
2018-02-06T15:28:19.400Z,18.10
2018-02-06T15:30:47.670Z,18.80
2018-02-06T15:33:15.924Z,17.52
2018-02-06T15:35:43.439Z,13.35
2018-02-06T15:38:10.945Z,19.23
2018-02-06T15:40:38.453Z,13.23
2018-02-06T15:43:05.978Z,16.83
2018-02-06T15:45:34.254Z,15.10
2018-02-06T15:48:02.535Z,18.17
2018-02-06T15:50:30.826Z,12.95
2018-02-06T15:52:58.344Z,10.13
2018-02-06T15:55:25.835Z,14.40
2018-02-06T15:57:54.122Z,18.45
2018-02-06T16:00:22.423Z,21.77
2018-02-06T16:02:49.911Z,15.50
2018-02-06T16:05:17.445Z,12.15
2018-02-06T16:07:44.965Z,13.05
2018-02-06T16:10:14.292Z,15.32
2018-02-06T16:12:42.564Z,14.27
2018-02-06T16:15:10.126Z,17.10
2018-02-06T16:17:37.625Z,15.77
2018-02-06T16:20:05.162Z,12.98
2018-02-06T16:22:32.674Z,15.00
2018-02-06T16:25:00.941Z,12.52
2018-02-06T16:27:29.228Z,18.25
2018-02-06T16:29:57.508Z,14.95
2018-02-06T16:32:25.074Z,21.40
2018-02-06T16:34:52.648Z,13.73
2018-02-06T16:37:20.164Z,13.90
2018-02-06T16:39:47.667Z,16.17
2018-02-06T16:42:15.193Z,18.37
2018-02-06T16:44:43.462Z,16.92
2018-02-06T16:47:11.726Z,14.13
2018-02-06T16:49:39.249Z,15.52
2018-02-06T16:52:06.741Z,14.95
2018-02-06T16:54:34.233Z,14.57
2018-02-06T16:57:01.816Z,19.23
2018-02-06T16:59:29.316Z,13.77
2018-02-06T17:01:56.812Z,16.20
2018-02-06T17:04:24.337Z,14.68
2018-02-06T17:06:51.838Z,14.95
2018-02-06T17:09:19.338Z,16.02
2018-02-06T17:11:46.866Z,16.48
2018-02-06T17:14:14.366Z,12.95
2018-02-06T17:16:41.872Z,15.30
2018-02-06T17:19:09.393Z,11.95
2018-02-06T17:21:36.902Z,12.55
2018-02-06T17:24:04.406Z,14.48
2018-02-06T17:26:31.927Z,14.02
2018-02-06T17:28:59.436Z,13.32
2018-02-06T17:31:26.948Z,13.38
2018-02-06T17:33:54.475Z,15.63
2018-02-06T17:36:21.987Z,21.35
2018-02-06T17:38:49.495Z,16.05
2018-02-06T17:41:17.035Z,15.23
2018-02-06T17:43:45.306Z,14.52
2018-02-06T17:46:13.578Z,17.77
2018-02-06T17:48:41.884Z,17.20
2018-02-06T17:51:09.398Z,17.00
2018-02-06T17:53:36.888Z,17.77
2018-02-06T17:56:04.410Z,15.63
2018-02-06T17:58:31.913Z,18.45
2018-02-06T18:00:59.427Z,15.23
2018-02-06T18:03:26.944Z,17.37
2018-02-06T18:05:54.446Z,13.48
2018-02-06T18:08:21.953Z,17.05
2018-02-06T18:10:49.496Z,20.02
2018-02-06T18:13:17.019Z,17.87
2018-02-06T18:15:44.524Z,15.23
2018-02-06T18:18:12.041Z,18.35
2018-02-06T18:20:39.555Z,22.77
2018-02-06T18:23:07.058Z,18.75
2018-02-06T18:25:34.586Z,17.80
2018-02-06T18:28:02.112Z,16.58
2018-02-06T18:30:29.635Z,19.25
2018-02-06T18:32:57.155Z,24.92
2018-02-06T18:35:24.666Z,24.90
2018-02-06T18:37:52.951Z,18.42
2018-02-06T18:40:21.252Z,22.87
2018-02-06T18:42:48.767Z,19.45
2018-02-06T18:45:17.054Z,22.45
2018-02-06T18:47:45.347Z,19.12
2018-02-06T18:50:12.858Z,18.83
2018-02-06T18:52:40.381Z,18.85
2018-02-06T18:55:07.924Z,21.73
2018-02-06T18:57:35.443Z,18.67
2018-02-06T19:00:02.949Z,23.45
2018-02-06T19:02:30.497Z,20.83
2018-02-06T19:04:58.009Z,26.92
2018-02-06T19:07:25.533Z,22.25
2018-02-06T19:09:53.073Z,22.50
2018-02-06T19:12:21.376Z,21.65
2018-02-06T19:14:48.870Z,21.70
2018-02-06T19:17:16.401Z,19.20
2018-02-06T19:19:43.911Z,21.33
2018-02-06T19:22:12.185Z,27.23
2018-02-06T19:24:40.490Z,19.85
2018-02-06T19:27:08.007Z,24.83
2018-02-06T19:29:35.509Z,24.02
2018-02-06T19:32:03.044Z,24.15
2018-02-06T19:34:31.326Z,23.30
2018-02-06T19:36:59.587Z,23.23
2018-02-06T19:39:27.886Z,21.48
2018-02-06T19:41:55.384Z,27.35
2018-02-06T19:44:22.908Z,26.30
2018-02-06T19:46:50.432Z,24.83
2018-02-06T19:49:18.062Z,23.45
2018-02-06T19:51:45.570Z,30.77
2018-02-06T19:54:13.869Z,26.05
2018-02-06T19:56:41.389Z,24.73
2018-02-06T19:59:09.671Z,28.12
2018-02-06T20:01:37.985Z,27.15
2018-02-06T20:04:05.484Z,24.95
2018-02-06T20:06:33.006Z,27.30
2018-02-06T20:09:00.542Z,38.35
2018-02-06T20:11:28.057Z,27.08
2018-02-06T20:13:55.579Z,25.90
2018-02-06T20:16:23.114Z,26.23
2018-02-06T20:18:51.380Z,21.08
2018-02-06T20:21:19.693Z,31.35
2018-02-06T20:23:47.960Z,29.23
2018-02-06T20:26:15.479Z,29.17
2018-02-06T20:28:42.990Z,25.50
2018-02-06T20:31:10.522Z,26.58
2018-02-06T20:33:38.798Z,23.40
2018-02-06T20:36:06.334Z,28.38
2018-02-06T20:38:33.866Z,25.62
2018-02-06T20:41:01.378Z,25.33
2018-02-06T20:43:28.898Z,27.50
2018-02-06T20:45:56.476Z,23.23
2018-02-06T20:48:24.754Z,31.27
2018-02-06T20:50:53.013Z,28.87
2018-02-06T20:53:20.549Z,28.45
2018-02-06T20:55:48.059Z,25.88
2018-02-06T20:58:15.573Z,29.02
2018-02-06T21:00:43.108Z,31.48
2018-02-06T21:03:10.629Z,31.77
2018-02-06T21:05:38.910Z,31.37
2018-02-06T21:08:06.456Z,27.15
2018-02-06T21:10:34.738Z,33.75
2018-02-06T21:13:03.005Z,33.45
2018-02-06T21:15:30.562Z,33.92
2018-02-06T21:17:58.068Z,32.05
2018-02-06T21:20:25.568Z,28.27
2018-02-06T21:22:53.106Z,33.28
2018-02-06T21:25:21.594Z,30.42
2018-02-06T21:27:49.177Z,28.30
2018-02-06T21:30:16.723Z,32.92
2018-02-06T21:32:44.234Z,28.27
2018-02-06T21:35:11.745Z,36.72
2018-02-06T21:37:39.291Z,32.08
2018-02-06T21:40:06.825Z,34.50
2018-02-06T21:42:34.330Z,33.15
2018-02-06T21:45:01.879Z,29.73
2018-02-06T21:47:29.389Z,30.40
2018-02-06T21:49:56.909Z,30.45
2018-02-06T21:52:24.438Z,38.42
2018-02-06T21:54:51.940Z,41.08
2018-02-06T21:57:20.217Z,36.80
2018-02-06T21:59:48.500Z,36.88
2018-02-06T22:02:16.784Z,33.55
2018-02-06T22:04:44.294Z,40.83
2018-02-06T22:07:11.817Z,32.90
2018-02-06T22:09:39.322Z,38.30
2018-02-06T22:12:06.832Z,32.97
2018-02-06T22:14:34.362Z,35.45
2018-02-06T22:17:02.643Z,35.75
2018-02-06T22:19:30.914Z,31.45
2018-02-06T22:21:59.217Z,32.03
2018-02-06T22:24:26.740Z,33.08
2018-02-06T22:26:55.001Z,30.85
2018-02-06T22:29:22.547Z,35.28
2018-02-06T22:31:50.059Z,28.40
2018-02-06T22:34:17.580Z,34.75
2018-02-06T22:36:45.100Z,36.70
2018-02-06T22:39:12.600Z,28.92
2018-02-06T22:41:40.093Z,36.72
2018-02-06T22:44:07.633Z,37.55
2018-02-06T22:46:35.910Z,39.10
2018-02-06T22:49:04.214Z,35.22
2018-02-06T22:51:31.756Z,38.13
2018-02-06T22:53:59.267Z,33.72
2018-02-06T22:56:26.815Z,36.00
2018-02-06T22:58:54.356Z,32.30
2018-02-06T23:01:21.853Z,36.90
2018-02-06T23:03:49.369Z,34.83
2018-02-06T23:06:16.902Z,29.90
2018-02-06T23:08:45.169Z,38.22
2018-02-06T23:11:13.442Z,35.90
2018-02-06T23:13:41.751Z,30.12
2018-02-06T23:16:09.271Z,30.75
2018-02-06T23:18:36.775Z,37.53
2018-02-06T23:21:04.306Z,30.80
2018-02-06T23:23:32.572Z,35.13
2018-02-06T23:26:00.855Z,39.65
2018-02-06T23:28:29.149Z,32.97
2018-02-06T23:30:56.662Z,36.92
2018-02-06T23:33:24.190Z,31.73
2018-02-06T23:35:51.732Z,30.55
2018-02-06T23:38:19.251Z,33.35
2018-02-06T23:40:46.759Z,35.15
2018-02-06T23:43:14.294Z,50.70
2018-02-06T23:45:41.806Z,36.90
2018-02-06T23:48:09.329Z,32.67
2018-02-06T23:50:36.862Z,32.78
2018-02-06T23:53:05.132Z,39.22
2018-02-06T23:55:33.406Z,35.33
2018-02-06T23:58:01.721Z,34.75
